sensor_id;sensor_type;location;lat;lon;timestamp;pressure;altitude;pressure_sealevel;temperature;humidity
20455;BME280;10386;54.314;10.022;2023-09-30T00:01:01;101938.88;;;12.74;100.00
20455;BME280;10386;54.314;10.022;2023-09-30T00:03:29;101934.78;;;12.67;100.00
20455;BME280;10386;54.314;10.022;2023-09-30T00:05:56;101945.00;;;12.64;100.00
20455;BME280;10386;54.314;10.022;2023-09-30T00:08:23;101945.28;;;12.59;100.00
20455;BME280;10386;54.314;10.022;2023-09-30T00:10:49;101944.91;;;12.65;100.00
20455;BME280;10386;54.314;10.022;2023-09-30T00:13:16;101941.50;;;12.62;100.00
20455;BME280;10386;54.314;10.022;2023-09-30T00:15:43;101945.19;;;12.61;100.00
20455;BME280;10386;54.314;10.022;2023-09-30T00:18:10;101946.44;;;12.55;100.00
20455;BME280;10386;54.314;10.022;2023-09-30T00:20:37;101956.38;;;12.56;100.00
20455;BME280;10386;54.314;10.022;2023-09-30T00:23:04;101958.91;;;12.59;100.00
20455;BME280;10386;54.314;10.022;2023-09-30T00:25:33;101961.72;;;12.58;100.00
20455;BME280;10386;54.314;10.022;2023-09-30T00:27:59;101961.91;;;12.55;100.00
20455;BME280;10386;54.314;10.022;2023-09-30T00:30:26;101963.88;;;12.53;100.00
20455;BME280;10386;54.314;10.022;2023-09-30T00:32:53;101969.00;;;12.57;100.00
20455;BME280;10386;54.314;10.022;2023-09-30T00:35:20;101973.31;;;12.61;100.00
20455;BME280;10386;54.314;10.022;2023-09-30T00:37:47;101973.59;;;12.57;100.00
20455;BME280;10386;54.314;10.022;2023-09-30T00:40:14;101973.50;;;12.58;100.00
20455;BME280;10386;54.314;10.022;2023-09-30T00:42:41;101974.84;;;12.51;100.00
20455;BME280;10386;54.314;10.022;2023-09-30T00:45:09;101972.22;;;12.50;100.00
20455;BME280;10386;54.314;10.022;2023-09-30T00:47:37;101970.97;;;12.55;100.00
20455;BME280;10386;54.314;10.022;2023-09-30T00:50:05;101966.06;;;12.46;100.00
20455;BME280;10386;54.314;10.022;2023-09-30T00:52:35;101975.69;;;12.38;100.00
20455;BME280;10386;54.314;10.022;2023-09-30T00:55:03;101975.69;;;12.38;100.00
20455;BME280;10386;54.314;10.022;2023-09-30T00:57:33;101983.94;;;12.37;100.00
20455;BME280;10386;54.314;10.022;2023-09-30T01:00:01;101986.06;;;12.32;100.00
20455;BME280;10386;54.314;10.022;2023-09-30T01:02:28;101980.25;;;12.38;100.00
20455;BME280;10386;54.314;10.022;2023-09-30T01:04:55;101978.59;;;12.35;100.00
20455;BME280;10386;54.314;10.022;2023-09-30T01:07:22;101985.50;;;12.40;100.00
20455;BME280;10386;54.314;10.022;2023-09-30T01:09:49;101991.56;;;12.45;100.00
20455;BME280;10386;54.314;10.022;2023-09-30T01:12:17;101994.09;;;12.48;100.00
20455;BME280;10386;54.314;10.022;2023-09-30T01:14:44;101988.09;;;12.57;100.00
20455;BME280;10386;54.314;10.022;2023-09-30T01:17:11;101977.78;;;12.62;100.00
20455;BME280;10386;54.314;10.022;2023-09-30T01:19:40;101981.28;;;12.64;100.00
20455;BME280;10386;54.314;10.022;2023-09-30T01:22:13;101984.78;;;12.66;100.00
20455;BME280;10386;54.314;10.022;2023-09-30T01:24:40;101991.91;;;12.69;100.00
20455;BME280;10386;54.314;10.022;2023-09-30T01:27:09;101987.91;;;12.74;100.00
20455;BME280;10386;54.314;10.022;2023-09-30T01:29:36;101987.91;;;12.74;100.00
20455;BME280;10386;54.314;10.022;2023-09-30T01:32:05;101980.13;;;12.68;100.00
20455;BME280;10386;54.314;10.022;2023-09-30T01:34:37;101977.41;;;12.68;100.00
20455;BME280;10386;54.314;10.022;2023-09-30T01:37:04;101978.38;;;12.67;100.00
20455;BME280;10386;54.314;10.022;2023-09-30T01:39:32;101975.84;;;12.64;100.00
20455;BME280;10386;54.314;10.022;2023-09-30T01:41:59;101981.59;;;12.74;100.00
20455;BME280;10386;54.314;10.022;2023-09-30T01:44:26;101980.91;;;12.70;100.00
20455;BME280;10386;54.314;10.022;2023-09-30T01:46:54;101987.75;;;12.77;100.00
20455;BME280;10386;54.314;10.022;2023-09-30T01:49:21;101985.38;;;12.71;100.00
20455;BME280;10386;54.314;10.022;2023-09-30T01:51:51;101990.06;;;12.69;100.00
20455;BME280;10386;54.314;10.022;2023-09-30T01:54:17;101989.84;;;12.72;100.00
20455;BME280;10386;54.314;10.022;2023-09-30T01:56:44;101993.06;;;12.65;100.00
20455;BME280;10386;54.314;10.022;2023-09-30T01:59:11;101986.84;;;12.63;100.00
20455;BME280;10386;54.314;10.022;2023-09-30T02:01:38;102000.34;;;12.64;100.00
20455;BME280;10386;54.314;10.022;2023-09-30T02:04:05;102003.69;;;12.69;100.00
20455;BME280;10386;54.314;10.022;2023-09-30T02:06:34;102003.41;;;12.74;100.00
20455;BME280;10386;54.314;10.022;2023-09-30T02:09:02;102004.91;;;12.79;100.00
20455;BME280;10386;54.314;10.022;2023-09-30T02:11:31;102000.22;;;12.81;100.00
20455;BME280;10386;54.314;10.022;2023-09-30T02:13:57;102005.88;;;12.78;100.00
20455;BME280;10386;54.314;10.022;2023-09-30T02:16:25;102007.44;;;12.82;100.00
20455;BME280;10386;54.314;10.022;2023-09-30T02:18:52;102005.56;;;12.83;100.00
20455;BME280;10386;54.314;10.022;2023-09-30T02:21:19;102009.78;;;12.88;100.00
20455;BME280;10386;54.314;10.022;2023-09-30T02:23:48;102011.41;;;12.91;100.00
20455;BME280;10386;54.314;10.022;2023-09-30T02:26:15;102012.22;;;12.93;100.00
20455;BME280;10386;54.314;10.022;2023-09-30T02:28:43;102014.44;;;12.86;100.00
20455;BME280;10386;54.314;10.022;2023-09-30T02:31:09;102009.81;;;13.02;100.00
20455;BME280;10386;54.314;10.022;2023-09-30T02:33:36;102009.22;;;12.97;100.00
20455;BME280;10386;54.314;10.022;2023-09-30T02:36:07;102014.88;;;12.94;100.00
20455;BME280;10386;54.314;10.022;2023-09-30T02:38:37;102013.59;;;13.00;100.00
20455;BME280;10386;54.314;10.022;2023-09-30T02:41:04;102014.88;;;12.94;100.00
20455;BME280;10386;54.314;10.022;2023-09-30T02:43:31;102018.56;;;12.93;100.00
20455;BME280;10386;54.314;10.022;2023-09-30T02:45:59;102018.91;;;12.87;100.00
20455;BME280;10386;54.314;10.022;2023-09-30T02:48:26;102026.91;;;12.90;100.00
20455;BME280;10386;54.314;10.022;2023-09-30T02:50:53;102019.94;;;13.00;100.00
20455;BME280;10386;54.314;10.022;2023-09-30T02:53:21;102022.28;;;13.06;100.00
20455;BME280;10386;54.314;10.022;2023-09-30T02:55:49;102021.13;;;13.10;100.00
20455;BME280;10386;54.314;10.022;2023-09-30T02:58:16;102019.25;;;13.11;100.00
20455;BME280;10386;54.314;10.022;2023-09-30T03:00:48;102026.38;;;13.13;100.00
20455;BME280;10386;54.314;10.022;2023-09-30T03:03:16;102027.34;;;13.12;100.00
20455;BME280;10386;54.314;10.022;2023-09-30T03:05:43;102031.31;;;13.07;100.00
20455;BME280;10386;54.314;10.022;2023-09-30T03:08:12;102028.25;;;13.27;100.00
20455;BME280;10386;54.314;10.022;2023-09-30T03:10:39;102024.81;;;13.23;100.00
20455;BME280;10386;54.314;10.022;2023-09-30T03:13:07;102028.91;;;13.30;100.00
20455;BME280;10386;54.314;10.022;2023-09-30T03:15:36;102024.56;;;13.28;100.00
20455;BME280;10386;54.314;10.022;2023-09-30T03:18:04;102033.72;;;13.27;100.00
20455;BME280;10386;54.314;10.022;2023-09-30T03:20:31;102034.69;;;13.26;100.00
20455;BME280;10386;54.314;10.022;2023-09-30T03:22:58;102039.72;;;13.18;100.00
20455;BME280;10386;54.314;10.022;2023-09-30T03:25:26;102044.19;;;13.05;100.00
20455;BME280;10386;54.314;10.022;2023-09-30T03:27:53;102041.44;;;13.05;100.00
20455;BME280;10386;54.314;10.022;2023-09-30T03:30:20;102040.41;;;13.07;100.00
20455;BME280;10386;54.314;10.022;2023-09-30T03:32:48;102048.28;;;13.12;100.00
20455;BME280;10386;54.314;10.022;2023-09-30T03:35:15;102051.38;;;13.06;100.00
20455;BME280;10386;54.314;10.022;2023-09-30T03:37:45;102057.41;;;12.97;100.00
20455;BME280;10386;54.314;10.022;2023-09-30T03:40:14;102056.84;;;13.06;100.00
20455;BME280;10386;54.314;10.022;2023-09-30T03:42:48;102051.69;;;12.72;100.00
20455;BME280;10386;54.314;10.022;2023-09-30T03:45:18;102061.38;;;12.62;100.00
20455;BME280;10386;54.314;10.022;2023-09-30T03:47:46;102053.66;;;12.54;100.00
20455;BME280;10386;54.314;10.022;2023-09-30T03:50:16;102060.03;;;12.39;100.00
20455;BME280;10386;54.314;10.022;2023-09-30T03:52:43;102066.66;;;12.49;100.00
20455;BME280;10386;54.314;10.022;2023-09-30T03:55:16;102070.91;;;12.55;100.00
20455;BME280;10386;54.314;10.022;2023-09-30T03:57:48;102079.69;;;12.44;100.00
20455;BME280;10386;54.314;10.022;2023-09-30T04:00:16;102081.47;;;12.30;100.00
20455;BME280;10386;54.314;10.022;2023-09-30T04:02:48;102078.41;;;12.21;100.00
20455;BME280;10386;54.314;10.022;2023-09-30T04:05:16;102081.66;;;12.12;100.00
20455;BME280;10386;54.314;10.022;2023-09-30T04:07:43;102080.88;;;12.10;100.00
20455;BME280;10386;54.314;10.022;2023-09-30T04:10:10;102077.91;;;11.99;100.00
20455;BME280;10386;54.314;10.022;2023-09-30T04:12:37;102078.34;;;12.07;100.00
20455;BME280;10386;54.314;10.022;2023-09-30T04:15:04;102087.66;;;12.03;100.00
20455;BME280;10386;54.314;10.022;2023-09-30T04:17:31;102079.56;;;12.01;100.00
20455;BME280;10386;54.314;10.022;2023-09-30T04:19:59;102089.28;;;11.90;100.00
20455;BME280;10386;54.314;10.022;2023-09-30T04:22:26;102097.53;;;11.73;100.00
20455;BME280;10386;54.314;10.022;2023-09-30T04:24:56;102102.38;;;11.83;100.00
20455;BME280;10386;54.314;10.022;2023-09-30T04:27:23;102096.31;;;11.78;100.00
20455;BME280;10386;54.314;10.022;2023-09-30T04:29:49;102105.84;;;11.70;100.00
20455;BME280;10386;54.314;10.022;2023-09-30T04:32:17;102103.75;;;11.59;100.00
20455;BME280;10386;54.314;10.022;2023-09-30T04:34:44;102102.97;;;11.57;100.00
20455;BME280;10386;54.314;10.022;2023-09-30T04:37:15;102101.25;;;11.55;100.00
20455;BME280;10386;54.314;10.022;2023-09-30T04:39:42;102105.81;;;11.54;100.00
20455;BME280;10386;54.314;10.022;2023-09-30T04:42:10;102117.59;;;11.55;100.00
20455;BME280;10386;54.314;10.022;2023-09-30T04:44:38;102107.50;;;11.57;100.00
20455;BME280;10386;54.314;10.022;2023-09-30T04:47:05;102099.09;;;11.61;100.00
20455;BME280;10386;54.314;10.022;2023-09-30T04:49:32;102101.75;;;11.46;100.00
20455;BME280;10386;54.314;10.022;2023-09-30T04:51:59;102106.72;;;11.38;100.00
20455;BME280;10386;54.314;10.022;2023-09-30T04:54:25;102097.59;;;11.39;100.00
20455;BME280;10386;54.314;10.022;2023-09-30T04:56:52;102103.53;;;11.30;100.00
20455;BME280;10386;54.314;10.022;2023-09-30T04:59:19;102098.28;;;11.27;100.00
20455;BME280;10386;54.314;10.022;2023-09-30T05:01:46;102103.88;;;11.24;100.00
20455;BME280;10386;54.314;10.022;2023-09-30T05:04:13;102093.78;;;11.26;100.00
20455;BME280;10386;54.314;10.022;2023-09-30T05:06:40;102091.38;;;11.37;100.00
20455;BME280;10386;54.314;10.022;2023-09-30T05:09:06;102084.88;;;11.39;100.00
20455;BME280;10386;54.314;10.022;2023-09-30T05:11:33;102086.00;;;11.35;100.00
20455;BME280;10386;54.314;10.022;2023-09-30T05:14:02;102091.78;;;11.29;100.00
20455;BME280;10386;54.314;10.022;2023-09-30T05:16:31;102082.75;;;11.29;100.00
20455;BME280;10386;54.314;10.022;2023-09-30T05:18:59;102084.34;;;11.33;100.00
20455;BME280;10386;54.314;10.022;2023-09-30T05:21:25;102089.94;;;11.30;100.00
20455;BME280;10386;54.314;10.022;2023-09-30T05:23:53;102084.38;;;11.48;100.00
20455;BME280;10386;54.314;10.022;2023-09-30T05:26:20;102084.00;;;11.39;100.00
20455;BME280;10386;54.314;10.022;2023-09-30T05:28:47;102080.22;;;11.41;100.00
20455;BME280;10386;54.314;10.022;2023-09-30T05:31:14;102091.19;;;11.40;100.00
20455;BME280;10386;54.314;10.022;2023-09-30T05:33:40;102080.59;;;11.51;100.00
20455;BME280;10386;54.314;10.022;2023-09-30T05:36:07;102071.19;;;11.58;100.00
20455;BME280;10386;54.314;10.022;2023-09-30T05:38:35;102068.22;;;11.62;100.00
20455;BME280;10386;54.314;10.022;2023-09-30T05:41:03;102070.13;;;11.76;100.00
20455;BME280;10386;54.314;10.022;2023-09-30T05:43:30;102070.75;;;11.81;100.00
20455;BME280;10386;54.314;10.022;2023-09-30T05:45:57;102064.44;;;11.80;100.00
20455;BME280;10386;54.314;10.022;2023-09-30T05:48:27;102072.09;;;11.89;100.00
20455;BME280;10386;54.314;10.022;2023-09-30T05:50:55;102069.97;;;11.94;100.00
20455;BME280;10386;54.314;10.022;2023-09-30T05:53:21;102067.53;;;12.05;100.00
20455;BME280;10386;54.314;10.022;2023-09-30T05:55:49;102061.47;;;12.16;100.00
20455;BME280;10386;54.314;10.022;2023-09-30T05:58:17;102058.03;;;12.28;100.00
20455;BME280;10386;54.314;10.022;2023-09-30T06:00:44;102059.41;;;12.35;100.00
20455;BME280;10386;54.314;10.022;2023-09-30T06:03:11;102060.78;;;12.57;100.00
20455;BME280;10386;54.314;10.022;2023-09-30T06:05:42;102060.44;;;12.77;100.00
20455;BME280;10386;54.314;10.022;2023-09-30T06:08:10;102064.66;;;12.82;100.00
20455;BME280;10386;54.314;10.022;2023-09-30T06:10:43;102072.59;;;12.71;100.00
20455;BME280;10386;54.314;10.022;2023-09-30T06:13:11;102070.91;;;12.84;100.00
20455;BME280;10386;54.314;10.022;2023-09-30T06:15:40;102072.91;;;12.81;100.00
20455;BME280;10386;54.314;10.022;2023-09-30T06:18:08;102061.94;;;12.82;100.00
20455;BME280;10386;54.314;10.022;2023-09-30T06:20:41;102062.81;;;13.12;100.00
20455;BME280;10386;54.314;10.022;2023-09-30T06:23:08;102066.50;;;13.11;100.00
20455;BME280;10386;54.314;10.022;2023-09-30T06:25:36;102079.38;;;13.23;100.00
20455;BME280;10386;54.314;10.022;2023-09-30T06:28:04;102070.34;;;13.37;100.00
20455;BME280;10386;54.314;10.022;2023-09-30T06:30:30;102065.94;;;13.48;100.00
20455;BME280;10386;54.314;10.022;2023-09-30T06:33:01;102055.72;;;13.52;100.00
20455;BME280;10386;54.314;10.022;2023-09-30T06:35:28;102060.97;;;13.55;100.00
20455;BME280;10386;54.314;10.022;2023-09-30T06:38:03;102063.59;;;13.56;100.00
20455;BME280;10386;54.314;10.022;2023-09-30T06:40:33;102067.22;;;13.57;100.00
20455;BME280;10386;54.314;10.022;2023-09-30T06:43:04;102061.94;;;13.54;100.00
20455;BME280;10386;54.314;10.022;2023-09-30T06:45:31;102070.78;;;13.57;100.00
20455;BME280;10386;54.314;10.022;2023-09-30T06:47:59;102074.91;;;13.64;100.00
20455;BME280;10386;54.314;10.022;2023-09-30T06:50:26;102081.75;;;13.71;100.00
20455;BME280;10386;54.314;10.022;2023-09-30T06:52:53;102080.53;;;13.89;100.00
20455;BME280;10386;54.314;10.022;2023-09-30T06:55:20;102085.81;;;13.78;100.00
20455;BME280;10386;54.314;10.022;2023-09-30T06:57:47;102076.47;;;13.82;100.00
20455;BME280;10386;54.314;10.022;2023-09-30T07:00:14;102086.19;;;13.86;100.00
20455;BME280;10386;54.314;10.022;2023-09-30T07:02:41;102079.84;;;13.85;100.00
20455;BME280;10386;54.314;10.022;2023-09-30T07:05:11;102076.22;;;13.99;100.00
20455;BME280;10386;54.314;10.022;2023-09-30T07:07:38;102088.94;;;13.86;100.00
20455;BME280;10386;54.314;10.022;2023-09-30T07:10:06;102090.50;;;13.90;100.00
20455;BME280;10386;54.314;10.022;2023-09-30T07:12:33;102098.56;;;13.91;100.00
20455;BME280;10386;54.314;10.022;2023-09-30T07:15:06;102100.97;;;14.10;100.00
20455;BME280;10386;54.314;10.022;2023-09-30T07:17:33;102104.03;;;14.19;100.00
20455;BME280;10386;54.314;10.022;2023-09-30T07:20:04;102113.84;;;14.22;100.00
20455;BME280;10386;54.314;10.022;2023-09-30T07:22:33;102121.34;;;14.32;100.00
20455;BME280;10386;54.314;10.022;2023-09-30T07:25:15;102121.41;;;14.45;100.00
20455;BME280;10386;54.314;10.022;2023-09-30T07:27:44;102130.00;;;14.53;100.00
20455;BME280;10386;54.314;10.022;2023-09-30T07:30:12;102126.16;;;14.82;100.00
20455;BME280;10386;54.314;10.022;2023-09-30T07:32:42;102125.81;;;14.86;100.00
20455;BME280;10386;54.314;10.022;2023-09-30T07:35:10;102134.84;;;15.01;100.00
20455;BME280;10386;54.314;10.022;2023-09-30T07:37:37;102146.47;;;15.17;100.00
20455;BME280;10386;54.314;10.022;2023-09-30T07:40:05;102152.28;;;15.24;100.00
20455;BME280;10386;54.314;10.022;2023-09-30T07:42:32;102155.63;;;15.29;100.00
20455;BME280;10386;54.314;10.022;2023-09-30T07:45:00;102164.75;;;15.42;100.00
20455;BME280;10386;54.314;10.022;2023-09-30T07:47:27;102175.28;;;15.48;100.00
20455;BME280;10386;54.314;10.022;2023-09-30T07:49:54;102178.66;;;15.52;100.00
20455;BME280;10386;54.314;10.022;2023-09-30T07:52:21;102199.03;;;15.60;100.00
20455;BME280;10386;54.314;10.022;2023-09-30T07:54:48;102198.06;;;15.86;100.00
20455;BME280;10386;54.314;10.022;2023-09-30T07:57:15;102217.25;;;15.86;100.00
20455;BME280;10386;54.314;10.022;2023-09-30T07:59:43;102225.00;;;15.92;100.00
20455;BME280;10386;54.314;10.022;2023-09-30T08:02:10;102227.09;;;16.01;100.00
20455;BME280;10386;54.314;10.022;2023-09-30T08:04:36;102239.16;;;16.11;100.00
20455;BME280;10386;54.314;10.022;2023-09-30T08:07:03;102249.03;;;16.14;100.00
20455;BME280;10386;54.314;10.022;2023-09-30T08:09:30;102225.34;;;16.25;100.00
20455;BME280;10386;54.314;10.022;2023-09-30T08:11:57;102239.41;;;16.33;100.00
20455;BME280;10386;54.314;10.022;2023-09-30T08:14:25;102242.69;;;16.38;100.00
20455;BME280;10386;54.314;10.022;2023-09-30T08:16:52;102247.91;;;16.29;100.00
20455;BME280;10386;54.314;10.022;2023-09-30T08:19:18;102256.03;;;16.30;100.00
20455;BME280;10386;54.314;10.022;2023-09-30T08:21:47;102268.22;;;16.26;100.00
20455;BME280;10386;54.314;10.022;2023-09-30T08:24:14;102274.69;;;16.50;100.00
20455;BME280;10386;54.314;10.022;2023-09-30T08:26:41;102261.63;;;16.54;100.00
20455;BME280;10386;54.314;10.022;2023-09-30T08:29:08;102278.50;;;16.60;100.00
20455;BME280;10386;54.314;10.022;2023-09-30T08:31:35;102292.53;;;16.56;100.00
20455;BME280;10386;54.314;10.022;2023-09-30T08:34:02;102303.81;;;16.76;100.00
20455;BME280;10386;54.314;10.022;2023-09-30T08:36:31;102300.00;;;16.78;100.00
20455;BME280;10386;54.314;10.022;2023-09-30T08:38:59;102306.56;;;16.76;100.00
20455;BME280;10386;54.314;10.022;2023-09-30T08:41:33;102310.06;;;16.90;100.00
20455;BME280;10386;54.314;10.022;2023-09-30T08:44:01;102309.44;;;17.10;100.00
20455;BME280;10386;54.314;10.022;2023-09-30T08:46:33;102306.38;;;17.15;100.00
20455;BME280;10386;54.314;10.022;2023-09-30T08:49:02;102243.34;;;17.13;100.00
20455;BME280;10386;54.314;10.022;2023-09-30T08:51:31;102254.38;;;17.24;100.00
20455;BME280;10386;54.314;10.022;2023-09-30T08:53:59;102270.63;;;17.04;100.00
20455;BME280;10386;54.314;10.022;2023-09-30T08:56:28;102272.97;;;17.21;100.00
20455;BME280;10386;54.314;10.022;2023-09-30T08:58:57;102275.09;;;17.41;100.00
20455;BME280;10386;54.314;10.022;2023-09-30T09:01:29;102296.13;;;17.53;100.00
20455;BME280;10386;54.314;10.022;2023-09-30T09:03:57;102303.13;;;17.57;100.00
20455;BME280;10386;54.314;10.022;2023-09-30T09:06:25;102314.16;;;17.68;100.00
20455;BME280;10386;54.314;10.022;2023-09-30T09:08:53;102322.41;;;17.68;100.00
20455;BME280;10386;54.314;10.022;2023-09-30T09:11:20;102331.78;;;18.00;100.00
20455;BME280;10386;54.314;10.022;2023-09-30T09:13:51;102350.38;;;17.73;100.00
20455;BME280;10386;54.314;10.022;2023-09-30T09:16:24;102356.47;;;17.89;100.00
20455;BME280;10386;54.314;10.022;2023-09-30T09:18:52;102369.97;;;17.92;100.00
20455;BME280;10386;54.314;10.022;2023-09-30T09:21:21;102381.09;;;17.90;100.00
20455;BME280;10386;54.314;10.022;2023-09-30T09:23:57;102384.56;;;18.15;100.00
20455;BME280;10386;54.314;10.022;2023-09-30T09:26:28;102393.78;;;18.04;100.00
20455;BME280;10386;54.314;10.022;2023-09-30T09:28:57;102401.91;;;18.16;100.00
20455;BME280;10386;54.314;10.022;2023-09-30T09:31:33;102410.44;;;18.24;100.00
20455;BME280;10386;54.314;10.022;2023-09-30T09:34:04;102417.91;;;18.34;100.00
20455;BME280;10386;54.314;10.022;2023-09-30T09:36:41;102422.47;;;18.57;100.00
20455;BME280;10386;54.314;10.022;2023-09-30T09:39:10;102430.91;;;18.32;100.00
20455;BME280;10386;54.314;10.022;2023-09-30T09:41:53;102446.63;;;18.07;100.00
20455;BME280;10386;54.314;10.022;2023-09-30T09:44:22;102455.47;;;17.76;100.00
20455;BME280;10386;54.314;10.022;2023-09-30T09:46:49;102456.31;;;17.53;100.00
20455;BME280;10386;54.314;10.022;2023-09-30T09:49:18;102465.44;;;17.29;100.00
20455;BME280;10386;54.314;10.022;2023-09-30T09:51:46;102479.97;;;17.06;100.00
20455;BME280;10386;54.314;10.022;2023-09-30T09:54:15;102488.41;;;16.90;100.00
20455;BME280;10386;54.314;10.022;2023-09-30T09:56:46;102493.34;;;16.85;100.00
20455;BME280;10386;54.314;10.022;2023-09-30T09:59:13;102487.97;;;16.71;100.00
20455;BME280;10386;54.314;10.022;2023-09-30T10:01:41;102494.31;;;16.97;100.00
20455;BME280;10386;54.314;10.022;2023-09-30T10:04:12;102476.88;;;17.35;100.00
20455;BME280;10386;54.314;10.022;2023-09-30T10:06:44;102475.00;;;17.48;100.00
20455;BME280;10386;54.314;10.022;2023-09-30T10:09:16;102469.88;;;17.67;100.00
20455;BME280;10386;54.314;10.022;2023-09-30T10:11:45;102485.56;;;17.78;100.00
20455;BME280;10386;54.314;10.022;2023-09-30T10:14:32;102502.69;;;17.81;100.00
20455;BME280;10386;54.314;10.022;2023-09-30T10:16:59;102516.09;;;18.09;100.00
20455;BME280;10386;54.314;10.022;2023-09-30T10:19:26;102524.78;;;18.15;100.00
20455;BME280;10386;54.314;10.022;2023-09-30T10:24:55;102541.06;;;18.18;100.00
20455;BME280;10386;54.314;10.022;2023-09-30T10:41:01;102599.63;;;19.47;100.00
20455;BME280;10386;54.314;10.022;2023-09-30T10:43:52;102610.28;;;19.41;100.00
20455;BME280;10386;54.314;10.022;2023-09-30T10:46:46;102634.84;;;18.86;100.00
20455;BME280;10386;54.314;10.022;2023-09-30T10:49:29;102634.53;;;18.18;100.00
20455;BME280;10386;54.314;10.022;2023-09-30T10:51:59;102645.69;;;17.92;100.00
20455;BME280;10386;54.314;10.022;2023-09-30T10:54:28;102642.53;;;17.61;100.00
20455;BME280;10386;54.314;10.022;2023-09-30T10:56:55;102655.38;;;17.48;100.00
20455;BME280;10386;54.314;10.022;2023-09-30T10:59:23;102665.13;;;17.39;100.00
20455;BME280;10386;54.314;10.022;2023-09-30T11:01:51;102660.75;;;17.37;100.00
20455;BME280;10386;54.314;10.022;2023-09-30T11:04:21;102665.47;;;17.35;100.00
20455;BME280;10386;54.314;10.022;2023-09-30T11:06:48;102671.88;;;17.60;100.00
20455;BME280;10386;54.314;10.022;2023-09-30T11:09:20;102667.91;;;17.77;100.00
20455;BME280;10386;54.314;10.022;2023-09-30T11:11:49;102677.25;;;17.74;100.00
20455;BME280;10386;54.314;10.022;2023-09-30T11:14:23;102669.91;;;17.62;100.00
20455;BME280;10386;54.314;10.022;2023-09-30T11:17:02;102669.88;;;17.75;100.00
20455;BME280;10386;54.314;10.022;2023-09-30T11:19:46;102669.09;;;17.73;100.00
20455;BME280;10386;54.314;10.022;2023-09-30T11:22:14;102661.31;;;17.79;100.00
20455;BME280;10386;54.314;10.022;2023-09-30T11:24:41;102645.00;;;18.13;100.00
20455;BME280;10386;54.314;10.022;2023-09-30T11:27:08;102650.88;;;18.45;100.00
20455;BME280;10386;54.314;10.022;2023-09-30T11:29:35;102657.22;;;18.58;100.00
20455;BME280;10386;54.314;10.022;2023-09-30T11:32:03;102652.91;;;18.30;100.00
20455;BME280;10386;54.314;10.022;2023-09-30T11:34:35;102658.06;;;18.22;100.00
20455;BME280;10386;54.314;10.022;2023-09-30T11:37:03;102657.56;;;17.93;100.00
20455;BME280;10386;54.314;10.022;2023-09-30T11:39:30;102653.28;;;17.64;100.00
20455;BME280;10386;54.314;10.022;2023-09-30T11:41:57;102656.69;;;17.55;100.00
20455;BME280;10386;54.314;10.022;2023-09-30T11:44:25;102661.63;;;17.37;100.00
20455;BME280;10386;54.314;10.022;2023-09-30T11:47:01;102666.19;;;17.24;100.00
20455;BME280;10386;54.314;10.022;2023-09-30T11:49:34;102687.72;;;17.18;100.00
20455;BME280;10386;54.314;10.022;2023-09-30T11:52:06;102677.03;;;17.13;100.00
20455;BME280;10386;54.314;10.022;2023-09-30T11:54:36;102690.66;;;17.15;100.00
20455;BME280;10386;54.314;10.022;2023-09-30T11:57:08;102699.75;;;17.15;100.00
20455;BME280;10386;54.314;10.022;2023-09-30T11:59:37;102694.59;;;17.11;100.00
20455;BME280;10386;54.314;10.022;2023-09-30T12:02:04;102702.28;;;17.06;100.00
20455;BME280;10386;54.314;10.022;2023-09-30T12:04:41;102707.28;;;16.99;100.00
20455;BME280;10386;54.314;10.022;2023-09-30T12:07:09;102692.88;;;16.96;100.00
20455;BME280;10386;54.314;10.022;2023-09-30T12:09:36;102711.31;;;17.20;100.00
20455;BME280;10386;54.314;10.022;2023-09-30T12:12:08;102711.00;;;17.25;100.00
20455;BME280;10386;54.314;10.022;2023-09-30T12:14:40;102698.13;;;17.13;100.00
20455;BME280;10386;54.314;10.022;2023-09-30T12:17:07;102698.44;;;17.08;100.00
20455;BME280;10386;54.314;10.022;2023-09-30T12:19:40;102697.44;;;17.09;100.00
20455;BME280;10386;54.314;10.022;2023-09-30T12:22:08;102692.63;;;17.13;100.00
20455;BME280;10386;54.314;10.022;2023-09-30T12:24:37;102692.56;;;17.27;100.00
20455;BME280;10386;54.314;10.022;2023-09-30T12:27:03;102696.56;;;17.48;100.00
20455;BME280;10386;54.314;10.022;2023-09-30T12:29:31;102694.16;;;17.43;100.00
20455;BME280;10386;54.314;10.022;2023-09-30T12:31:58;102702.19;;;17.84;100.00
20455;BME280;10386;54.314;10.022;2023-09-30T12:34:25;102695.53;;;18.48;100.00
20455;BME280;10386;54.314;10.022;2023-09-30T12:36:54;102678.41;;;18.68;100.00
20455;BME280;10386;54.314;10.022;2023-09-30T12:39:24;102664.53;;;18.70;100.00
20455;BME280;10386;54.314;10.022;2023-09-30T12:41:53;102673.41;;;18.02;100.00
20455;BME280;10386;54.314;10.022;2023-09-30T12:44:20;102676.13;;;17.77;100.00
20455;BME280;10386;54.314;10.022;2023-09-30T12:46:47;102679.22;;;17.47;100.00
20455;BME280;10386;54.314;10.022;2023-09-30T12:49:14;102679.81;;;17.26;100.00
20455;BME280;10386;54.314;10.022;2023-09-30T12:51:42;102688.91;;;17.26;100.00
20455;BME280;10386;54.314;10.022;2023-09-30T12:54:09;102692.41;;;17.16;100.00